sensor_id;sensor_type;location;lat;lon;timestamp;temperature;humidity
17632;DHT22;8934;51.194;17.150;2022-10-31T00:02:17;7.10;99.90
17632;DHT22;8934;51.194;17.150;2022-10-31T00:05:05;7.10;99.90
17632;DHT22;8934;51.194;17.150;2022-10-31T00:07:52;7.10;99.90
17632;DHT22;8934;51.194;17.150;2022-10-31T00:10:41;7.10;99.90
17632;DHT22;8934;51.194;17.150;2022-10-31T00:13:29;7.00;99.90
17632;DHT22;8934;51.194;17.150;2022-10-31T00:16:20;7.00;99.90
17632;DHT22;8934;51.194;17.150;2022-10-31T00:19:08;7.00;99.90
17632;DHT22;8934;51.194;17.150;2022-10-31T00:21:56;6.90;99.90
17632;DHT22;8934;51.194;17.150;2022-10-31T00:24:44;6.90;99.90
17632;DHT22;8934;51.194;17.150;2022-10-31T00:27:31;6.90;99.90
17632;DHT22;8934;51.194;17.150;2022-10-31T00:30:20;6.90;99.90
17632;DHT22;8934;51.194;17.150;2022-10-31T00:33:09;6.90;99.90
17632;DHT22;8934;51.194;17.150;2022-10-31T00:35:57;6.80;99.90
17632;DHT22;8934;51.194;17.150;2022-10-31T00:38:45;6.80;99.90
17632;DHT22;8934;51.194;17.150;2022-10-31T00:41:34;6.80;99.90
17632;DHT22;8934;51.194;17.150;2022-10-31T00:44:27;6.80;99.90
17632;DHT22;8934;51.194;17.150;2022-10-31T00:47:15;6.80;99.90
17632;DHT22;8934;51.194;17.150;2022-10-31T00:50:06;6.80;99.90
17632;DHT22;8934;51.194;17.150;2022-10-31T00:52:54;6.80;99.90
17632;DHT22;8934;51.194;17.150;2022-10-31T00:55:42;6.80;99.90
17632;DHT22;8934;51.194;17.150;2022-10-31T00:58:30;6.80;99.90
17632;DHT22;8934;51.194;17.150;2022-10-31T01:01:18;6.70;99.90
17632;DHT22;8934;51.194;17.150;2022-10-31T01:04:05;6.70;99.90
17632;DHT22;8934;51.194;17.150;2022-10-31T01:06:54;6.80;99.90
17632;DHT22;8934;51.194;17.150;2022-10-31T01:09:42;6.80;99.90
17632;DHT22;8934;51.194;17.150;2022-10-31T01:12:29;6.70;99.90
17632;DHT22;8934;51.194;17.150;2022-10-31T01:15:18;6.70;99.90
17632;DHT22;8934;51.194;17.150;2022-10-31T01:18:06;6.70;99.90
17632;DHT22;8934;51.194;17.150;2022-10-31T01:20:58;6.60;99.90
17632;DHT22;8934;51.194;17.150;2022-10-31T01:23:47;6.60;99.90
17632;DHT22;8934;51.194;17.150;2022-10-31T01:26:35;6.60;99.90
17632;DHT22;8934;51.194;17.150;2022-10-31T01:29:22;6.50;99.90
17632;DHT22;8934;51.194;17.150;2022-10-31T01:32:10;6.50;99.90
17632;DHT22;8934;51.194;17.150;2022-10-31T01:34:57;6.50;99.90
17632;DHT22;8934;51.194;17.150;2022-10-31T01:37:45;6.40;99.90
17632;DHT22;8934;51.194;17.150;2022-10-31T01:40:34;6.40;99.90
17632;DHT22;8934;51.194;17.150;2022-10-31T01:43:21;6.40;99.90
17632;DHT22;8934;51.194;17.150;2022-10-31T01:46:08;6.40;99.90
17632;DHT22;8934;51.194;17.150;2022-10-31T01:48:56;6.40;99.90
17632;DHT22;8934;51.194;17.150;2022-10-31T01:51:45;6.40;99.90
17632;DHT22;8934;51.194;17.150;2022-10-31T01:54:34;6.30;99.90
17632;DHT22;8934;51.194;17.150;2022-10-31T01:57:26;6.30;99.90
17632;DHT22;8934;51.194;17.150;2022-10-31T02:00:14;6.30;99.90
17632;DHT22;8934;51.194;17.150;2022-10-31T02:03:03;6.40;99.90
17632;DHT22;8934;51.194;17.150;2022-10-31T02:05:50;6.40;99.90
17632;DHT22;8934;51.194;17.150;2022-10-31T02:08:40;6.40;99.90
17632;DHT22;8934;51.194;17.150;2022-10-31T02:11:28;6.30;99.90
17632;DHT22;8934;51.194;17.150;2022-10-31T02:14:18;6.30;99.90
17632;DHT22;8934;51.194;17.150;2022-10-31T02:17:05;6.30;99.90
17632;DHT22;8934;51.194;17.150;2022-10-31T02:19:55;6.30;99.90
17632;DHT22;8934;51.194;17.150;2022-10-31T02:23:02;6.30;99.90
17632;DHT22;8934;51.194;17.150;2022-10-31T02:29:11;6.30;99.90
17632;DHT22;8934;51.194;17.150;2022-10-31T02:32:02;6.30;99.90
17632;DHT22;8934;51.194;17.150;2022-10-31T02:34:55;6.30;99.90
17632;DHT22;8934;51.194;17.150;2022-10-31T02:37:46;6.30;99.90
17632;DHT22;8934;51.194;17.150;2022-10-31T02:40:37;6.30;99.90
17632;DHT22;8934;51.194;17.150;2022-10-31T02:43:43;6.30;99.90
17632;DHT22;8934;51.194;17.150;2022-10-31T02:46:33;6.20;99.90
17632;DHT22;8934;51.194;17.150;2022-10-31T02:49:26;6.20;99.90
17632;DHT22;8934;51.194;17.150;2022-10-31T02:52:17;6.20;99.90
17632;DHT22;8934;51.194;17.150;2022-10-31T02:55:09;6.10;99.90
17632;DHT22;8934;51.194;17.150;2022-10-31T02:57:58;6.10;99.90
17632;DHT22;8934;51.194;17.150;2022-10-31T03:00:56;6.10;99.90
17632;DHT22;8934;51.194;17.150;2022-10-31T03:04:09;6.00;99.90
17632;DHT22;8934;51.194;17.150;2022-10-31T03:07:03;6.00;99.90
17632;DHT22;8934;51.194;17.150;2022-10-31T03:09:55;6.00;99.90
17632;DHT22;8934;51.194;17.150;2022-10-31T03:12:47;6.00;99.90
17632;DHT22;8934;51.194;17.150;2022-10-31T03:15:37;5.90;99.90
17632;DHT22;8934;51.194;17.150;2022-10-31T03:18:26;5.90;99.90
17632;DHT22;8934;51.194;17.150;2022-10-31T03:21:16;5.90;99.90
17632;DHT22;8934;51.194;17.150;2022-10-31T03:24:07;5.90;99.90
17632;DHT22;8934;51.194;17.150;2022-10-31T03:26:56;5.90;99.90
17632;DHT22;8934;51.194;17.150;2022-10-31T03:29:44;5.90;99.90
17632;DHT22;8934;51.194;17.150;2022-10-31T03:32:34;5.80;99.90
17632;DHT22;8934;51.194;17.150;2022-10-31T03:35:23;5.80;99.90
17632;DHT22;8934;51.194;17.150;2022-10-31T03:38:11;5.80;99.90
17632;DHT22;8934;51.194;17.150;2022-10-31T03:41:02;5.80;99.90
17632;DHT22;8934;51.194;17.150;2022-10-31T03:43:52;5.80;99.90
17632;DHT22;8934;51.194;17.150;2022-10-31T03:46:42;5.70;99.90
17632;DHT22;8934;51.194;17.150;2022-10-31T03:49:30;5.70;99.90
17632;DHT22;8934;51.194;17.150;2022-10-31T03:52:19;5.70;99.90
17632;DHT22;8934;51.194;17.150;2022-10-31T03:55:09;5.60;99.90
17632;DHT22;8934;51.194;17.150;2022-10-31T03:58:02;5.60;99.90
17632;DHT22;8934;51.194;17.150;2022-10-31T04:00:51;5.60;99.90
17632;DHT22;8934;51.194;17.150;2022-10-31T04:03:39;5.60;99.90
17632;DHT22;8934;51.194;17.150;2022-10-31T04:06:28;5.60;99.90
17632;DHT22;8934;51.194;17.150;2022-10-31T04:09:18;5.60;99.90
17632;DHT22;8934;51.194;17.150;2022-10-31T04:12:07;5.50;99.90
17632;DHT22;8934;51.194;17.150;2022-10-31T04:15:14;5.50;99.90
17632;DHT22;8934;51.194;17.150;2022-10-31T04:18:02;5.50;99.90
17632;DHT22;8934;51.194;17.150;2022-10-31T04:20:58;5.50;99.90
17632;DHT22;8934;51.194;17.150;2022-10-31T04:23:46;5.50;99.90
17632;DHT22;8934;51.194;17.150;2022-10-31T04:26:42;5.50;99.90
17632;DHT22;8934;51.194;17.150;2022-10-31T04:29:31;5.40;99.90
17632;DHT22;8934;51.194;17.150;2022-10-31T04:32:20;5.40;99.90
17632;DHT22;8934;51.194;17.150;2022-10-31T04:35:07;5.40;99.90
17632;DHT22;8934;51.194;17.150;2022-10-31T04:37:55;5.30;99.90
17632;DHT22;8934;51.194;17.150;2022-10-31T04:40:44;5.30;99.90
17632;DHT22;8934;51.194;17.150;2022-10-31T04:43:50;5.30;99.90
17632;DHT22;8934;51.194;17.150;2022-10-31T04:46:38;5.20;99.90
17632;DHT22;8934;51.194;17.150;2022-10-31T04:49:27;5.20;99.90
17632;DHT22;8934;51.194;17.150;2022-10-31T04:52:15;5.20;99.90
17632;DHT22;8934;51.194;17.150;2022-10-31T04:55:03;5.20;99.90
17632;DHT22;8934;51.194;17.150;2022-10-31T04:58:09;5.20;99.90
17632;DHT22;8934;51.194;17.150;2022-10-31T05:00:57;5.20;99.90
17632;DHT22;8934;51.194;17.150;2022-10-31T05:03:47;5.20;99.90
17632;DHT22;8934;51.194;17.150;2022-10-31T05:06:36;5.20;99.90
17632;DHT22;8934;51.194;17.150;2022-10-31T05:09:24;5.10;99.90
17632;DHT22;8934;51.194;17.150;2022-10-31T05:12:11;5.10;99.90
17632;DHT22;8934;51.194;17.150;2022-10-31T05:15:17;5.10;99.90
17632;DHT22;8934;51.194;17.150;2022-10-31T05:18:32;5.10;99.90
17632;DHT22;8934;51.194;17.150;2022-10-31T05:21:40;5.10;99.90
17632;DHT22;8934;51.194;17.150;2022-10-31T05:24:28;5.10;99.90
17632;DHT22;8934;51.194;17.150;2022-10-31T05:27:16;5.00;99.90
17632;DHT22;8934;51.194;17.150;2022-10-31T05:30:03;5.00;99.90
17632;DHT22;8934;51.194;17.150;2022-10-31T05:32:51;5.00;99.90
17632;DHT22;8934;51.194;17.150;2022-10-31T05:35:57;5.00;99.90
17632;DHT22;8934;51.194;17.150;2022-10-31T05:39:12;4.90;99.90
17632;DHT22;8934;51.194;17.150;2022-10-31T05:42:02;4.90;99.90
17632;DHT22;8934;51.194;17.150;2022-10-31T05:44:50;4.90;99.90
17632;DHT22;8934;51.194;17.150;2022-10-31T05:47:49;4.90;99.90
17632;DHT22;8934;51.194;17.150;2022-10-31T05:50:55;4.90;99.90
17632;DHT22;8934;51.194;17.150;2022-10-31T05:53:45;4.90;99.90
17632;DHT22;8934;51.194;17.150;2022-10-31T05:56:34;4.90;99.90
17632;DHT22;8934;51.194;17.150;2022-10-31T05:59:21;4.90;99.90
17632;DHT22;8934;51.194;17.150;2022-10-31T06:02:09;4.90;99.90
17632;DHT22;8934;51.194;17.150;2022-10-31T06:05:19;5.00;99.90
17632;DHT22;8934;51.194;17.150;2022-10-31T06:08:07;5.00;99.90
17632;DHT22;8934;51.194;17.150;2022-10-31T06:10:56;5.00;99.90
17632;DHT22;8934;51.194;17.150;2022-10-31T06:14:04;5.10;99.90
17632;DHT22;8934;51.194;17.150;2022-10-31T06:17:03;5.20;99.90
17632;DHT22;8934;51.194;17.150;2022-10-31T06:20:06;5.30;99.90
17632;DHT22;8934;51.194;17.150;2022-10-31T06:23:00;5.40;99.90
17632;DHT22;8934;51.194;17.150;2022-10-31T06:25:50;5.40;99.90
17632;DHT22;8934;51.194;17.150;2022-10-31T06:28:38;5.50;99.90
17632;DHT22;8934;51.194;17.150;2022-10-31T06:31:38;5.50;99.90
17632;DHT22;8934;51.194;17.150;2022-10-31T06:34:26;5.50;99.90
17632;DHT22;8934;51.194;17.150;2022-10-31T06:37:13;5.60;99.90
17632;DHT22;8934;51.194;17.150;2022-10-31T06:40:05;5.70;99.90
17632;DHT22;8934;51.194;17.150;2022-10-31T06:43:08;5.80;99.90
17632;DHT22;8934;51.194;17.150;2022-10-31T06:46:01;5.80;99.90
17632;DHT22;8934;51.194;17.150;2022-10-31T06:48:55;5.90;99.90
17632;DHT22;8934;51.194;17.150;2022-10-31T06:51:53;6.10;99.90
17632;DHT22;8934;51.194;17.150;2022-10-31T06:54:40;6.20;99.90
17632;DHT22;8934;51.194;17.150;2022-10-31T06:57:28;6.40;99.90
17632;DHT22;8934;51.194;17.150;2022-10-31T07:00:16;6.60;99.90
17632;DHT22;8934;51.194;17.150;2022-10-31T07:03:10;6.80;99.90
17632;DHT22;8934;51.194;17.150;2022-10-31T07:05:59;6.90;99.90
17632;DHT22;8934;51.194;17.150;2022-10-31T07:08:47;7.10;99.90
17632;DHT22;8934;51.194;17.150;2022-10-31T07:11:35;7.40;99.90
17632;DHT22;8934;51.194;17.150;2022-10-31T07:14:22;7.60;99.90
17632;DHT22;8934;51.194;17.150;2022-10-31T07:17:11;7.80;99.90
17632;DHT22;8934;51.194;17.150;2022-10-31T07:20:02;8.00;99.90
17632;DHT22;8934;51.194;17.150;2022-10-31T07:22:51;8.20;99.90
17632;DHT22;8934;51.194;17.150;2022-10-31T07:25:39;8.40;99.90
17632;DHT22;8934;51.194;17.150;2022-10-31T07:28:40;8.60;99.90
17632;DHT22;8934;51.194;17.150;2022-10-31T07:31:28;8.90;99.90
17632;DHT22;8934;51.194;17.150;2022-10-31T07:34:22;9.10;99.90
17632;DHT22;8934;51.194;17.150;2022-10-31T07:37:28;9.30;99.90
17632;DHT22;8934;51.194;17.150;2022-10-31T07:40:20;9.50;99.90
17632;DHT22;8934;51.194;17.150;2022-10-31T07:43:08;9.70;99.90
17632;DHT22;8934;51.194;17.150;2022-10-31T07:46:18;9.90;99.90
17632;DHT22;8934;51.194;17.150;2022-10-31T07:49:24;10.20;99.90
17632;DHT22;8934;51.194;17.150;2022-10-31T07:52:18;10.60;99.90
17632;DHT22;8934;51.194;17.150;2022-10-31T07:55:43;10.80;99.90
17632;DHT22;8934;51.194;17.150;2022-10-31T07:58:32;11.00;99.90
17632;DHT22;8934;51.194;17.150;2022-10-31T08:01:20;11.20;99.90
17632;DHT22;8934;51.194;17.150;2022-10-31T08:04:26;11.50;99.90
17632;DHT22;8934;51.194;17.150;2022-10-31T08:07:36;11.70;99.90
17632;DHT22;8934;51.194;17.150;2022-10-31T08:10:26;12.10;99.90
17632;DHT22;8934;51.194;17.150;2022-10-31T08:13:16;12.30;99.90
17632;DHT22;8934;51.194;17.150;2022-10-31T08:16:06;12.60;99.90
17632;DHT22;8934;51.194;17.150;2022-10-31T08:19:01;12.80;99.90
17632;DHT22;8934;51.194;17.150;2022-10-31T08:21:54;13.00;99.90
17632;DHT22;8934;51.194;17.150;2022-10-31T08:24:42;13.10;99.90
17632;DHT22;8934;51.194;17.150;2022-10-31T08:27:30;13.30;99.90
17632;DHT22;8934;51.194;17.150;2022-10-31T08:30:20;13.50;99.90
17632;DHT22;8934;51.194;17.150;2022-10-31T08:33:28;13.70;99.90
17632;DHT22;8934;51.194;17.150;2022-10-31T08:36:34;13.90;99.90
17632;DHT22;8934;51.194;17.150;2022-10-31T08:39:34;14.00;99.90
17632;DHT22;8934;51.194;17.150;2022-10-31T08:42:22;14.20;99.90
17632;DHT22;8934;51.194;17.150;2022-10-31T08:45:11;14.30;99.90
17632;DHT22;8934;51.194;17.150;2022-10-31T08:48:02;14.50;99.90
17632;DHT22;8934;51.194;17.150;2022-10-31T08:50:50;14.60;99.90
17632;DHT22;8934;51.194;17.150;2022-10-31T08:53:38;14.80;99.90
17632;DHT22;8934;51.194;17.150;2022-10-31T08:56:46;15.00;99.90
17632;DHT22;8934;51.194;17.150;2022-10-31T08:59:48;15.20;99.90
17632;DHT22;8934;51.194;17.150;2022-10-31T09:02:55;15.40;99.90
17632;DHT22;8934;51.194;17.150;2022-10-31T09:05:44;15.50;99.90
17632;DHT22;8934;51.194;17.150;2022-10-31T09:08:32;15.70;99.90
17632;DHT22;8934;51.194;17.150;2022-10-31T09:11:20;15.80;99.90
17632;DHT22;8934;51.194;17.150;2022-10-31T09:14:26;16.00;99.90
17632;DHT22;8934;51.194;17.150;2022-10-31T09:17:37;16.20;99.90
17632;DHT22;8934;51.194;17.150;2022-10-31T09:20:50;16.40;99.90
17632;DHT22;8934;51.194;17.150;2022-10-31T09:23:38;16.50;99.90
17632;DHT22;8934;51.194;17.150;2022-10-31T09:26:26;16.70;99.90
17632;DHT22;8934;51.194;17.150;2022-10-31T09:29:15;16.90;99.90
17632;DHT22;8934;51.194;17.150;2022-10-31T09:32:06;17.10;99.90
17632;DHT22;8934;51.194;17.150;2022-10-31T09:34:59;17.20;99.90
17632;DHT22;8934;51.194;17.150;2022-10-31T09:37:53;17.30;99.90
17632;DHT22;8934;51.194;17.150;2022-10-31T09:40:43;17.40;99.90
17632;DHT22;8934;51.194;17.150;2022-10-31T09:43:37;17.60;99.90
17632;DHT22;8934;51.194;17.150;2022-10-31T09:46:31;17.70;99.90
17632;DHT22;8934;51.194;17.150;2022-10-31T09:49:48;17.70;99.90
17632;DHT22;8934;51.194;17.150;2022-10-31T09:52:43;17.80;99.90
17632;DHT22;8934;51.194;17.150;2022-10-31T09:55:39;17.90;99.90
17632;DHT22;8934;51.194;17.150;2022-10-31T09:58:29;18.00;99.90
17632;DHT22;8934;51.194;17.150;2022-10-31T10:01:32;18.10;99.90
17632;DHT22;8934;51.194;17.150;2022-10-31T10:04:32;18.30;99.90
17632;DHT22;8934;51.194;17.150;2022-10-31T10:07:35;18.50;99.90
17632;DHT22;8934;51.194;17.150;2022-10-31T10:10:51;18.70;99.90
17632;DHT22;8934;51.194;17.150;2022-10-31T10:13:59;18.90;99.90
17632;DHT22;8934;51.194;17.150;2022-10-31T10:16:58;19.00;99.90
17632;DHT22;8934;51.194;17.150;2022-10-31T10:20:16;19.00;99.90
17632;DHT22;8934;51.194;17.150;2022-10-31T10:23:21;19.10;99.90
17632;DHT22;8934;51.194;17.150;2022-10-31T10:26:17;19.10;99.90
17632;DHT22;8934;51.194;17.150;2022-10-31T10:29:17;19.10;99.90
17632;DHT22;8934;51.194;17.150;2022-10-31T10:32:13;19.20;99.90
17632;DHT22;8934;51.194;17.150;2022-10-31T10:35:09;19.40;99.90
17632;DHT22;8934;51.194;17.150;2022-10-31T10:38:08;19.60;99.90
17632;DHT22;8934;51.194;17.150;2022-10-31T10:40:58;19.70;99.90
17632;DHT22;8934;51.194;17.150;2022-10-31T10:43:51;19.80;99.90
17632;DHT22;8934;51.194;17.150;2022-10-31T10:46:41;19.90;99.90
17632;DHT22;8934;51.194;17.150;2022-10-31T10:49:50;19.80;99.90
17632;DHT22;8934;51.194;17.150;2022-10-31T10:52:43;19.90;99.90
17632;DHT22;8934;51.194;17.150;2022-10-31T10:55:40;19.90;99.90
17632;DHT22;8934;51.194;17.150;2022-10-31T10:58:30;19.90;99.90
17632;DHT22;8934;51.194;17.150;2022-10-31T11:01:19;20.00;99.90
17632;DHT22;8934;51.194;17.150;2022-10-31T11:04:21;20.10;99.90
17632;DHT22;8934;51.194;17.150;2022-10-31T11:07:11;20.20;99.90
17632;DHT22;8934;51.194;17.150;2022-10-31T11:10:04;20.30;99.90
17632;DHT22;8934;51.194;17.150;2022-10-31T11:13:19;20.50;99.90
17632;DHT22;8934;51.194;17.150;2022-10-31T11:16:10;20.60;99.90
17632;DHT22;8934;51.194;17.150;2022-10-31T11:19:15;20.80;99.90
17632;DHT22;8934;51.194;17.150;2022-10-31T11:22:08;21.00;99.90
17632;DHT22;8934;51.194;17.150;2022-10-31T11:25:20;21.20;99.90
17632;DHT22;8934;51.194;17.150;2022-10-31T11:28:09;21.30;99.90
17632;DHT22;8934;51.194;17.150;2022-10-31T11:30:59;21.40;99.90
17632;DHT22;8934;51.194;17.150;2022-10-31T11:33:48;21.40;99.90
17632;DHT22;8934;51.194;17.150;2022-10-31T11:36:39;21.50;99.90
17632;DHT22;8934;51.194;17.150;2022-10-31T11:39:30;21.50;99.90
17632;DHT22;8934;51.194;17.150;2022-10-31T11:42:17;21.40;99.90
17632;DHT22;8934;51.194;17.150;2022-10-31T11:45:14;21.30;99.90
17632;DHT22;8934;51.194;17.150;2022-10-31T11:48:15;21.40;99.90
17632;DHT22;8934;51.194;17.150;2022-10-31T11:51:04;21.40;99.90
17632;DHT22;8934;51.194;17.150;2022-10-31T11:53:57;21.50;99.90
17632;DHT22;8934;51.194;17.150;2022-10-31T11:56:48;21.50;99.90
17632;DHT22;8934;51.194;17.150;2022-10-31T11:59:39;21.30;99.90
17632;DHT22;8934;51.194;17.150;2022-10-31T12:02:27;21.40;99.90
17632;DHT22;8934;51.194;17.150;2022-10-31T12:05:19;21.40;99.90
17632;DHT22;8934;51.194;17.150;2022-10-31T12:08:08;21.40;99.90
17632;DHT22;8934;51.194;17.150;2022-10-31T12:11:03;21.50;99.90
17632;DHT22;8934;51.194;17.150;2022-10-31T12:14:07;21.50;99.90
17632;DHT22;8934;51.194;17.150;2022-10-31T12:16:59;21.50;99.90
17632;DHT22;8934;51.194;17.150;2022-10-31T12:19:57;21.50;99.90
17632;DHT22;8934;51.194;17.150;2022-10-31T12:22:54;21.50;99.90
17632;DHT22;8934;51.194;17.150;2022-10-31T12:25:47;21.70;99.90
17632;DHT22;8934;51.194;17.150;2022-10-31T12:28:51;21.70;99.90
17632;DHT22;8934;51.194;17.150;2022-10-31T12:31:49;21.70;99.90
17632;DHT22;8934;51.194;17.150;2022-10-31T12:41:28;21.90;99.90
17632;DHT22;8934;51.194;17.150;2022-10-31T12:44:42;22.10;99.90
17632;DHT22;8934;51.194;17.150;2022-10-31T12:47:42;22.20;99.90
17632;DHT22;8934;51.194;17.150;2022-10-31T12:50:46;22.20;99.90
17632;DHT22;8934;51.194;17.150;2022-10-31T12:53:46;22.20;99.90
17632;DHT22;8934;51.194;17.150;2022-10-31T12:56:44;22.20;99.90
17632;DHT22;8934;51.194;17.150;2022-10-31T12:59:37;22.10;99.90
17632;DHT22;8934;51.194;17.150;2022-10-31T13:02:30;22.00;99.90
17632;DHT22;8934;51.194;17.150;2022-10-31T13:05:24;22.00;99.90
17632;DHT22;8934;51.194;17.150;2022-10-31T13:08:16;22.00;99.90
17632;DHT22;8934;51.194;17.150;2022-10-31T13:11:08;21.90;99.90
17632;DHT22;8934;51.194;17.150;2022-10-31T13:14:02;21.90;99.90
17632;DHT22;8934;51.194;17.150;2022-10-31T13:16:55;21.80;99.90
17632;DHT22;8934;51.194;17.150;2022-10-31T13:19:44;21.80;99.90
17632;DHT22;8934;51.194;17.150;2022-10-31T13:22:33;21.80;99.90
17632;DHT22;8934;51.194;17.150;2022-10-31T13:25:25;21.90;99.90
17632;DHT22;8934;51.194;17.150;2022-10-31T13:28:24;22.00;99.90
17632;DHT22;8934;51.194;17.150;2022-10-31T13:31:13;22.10;99.90
17632;DHT22;8934;51.194;17.150;2022-10-31T13:34:08;22.10;99.90
17632;DHT22;8934;51.194;17.150;2022-10-31T13:37:03;22.30;99.90
17632;DHT22;8934;51.194;17.150;2022-10-31T13:40:03;22.40;99.90
17632;DHT22;8934;51.194;17.150;2022-10-31T13:42:59;22.30;99.90
17632;DHT22;8934;51.194;17.150;2022-10-31T13:45:52;22.40;99.90
17632;DHT22;8934;51.194;17.150;2022-10-31T13:48:40;22.50;99.90
17632;DHT22;8934;51.194;17.150;2022-10-31T13:51:31;22.50;99.90
17632;DHT22;8934;51.194;17.150;2022-10-31T13:54:30;22.60;99.90
17632;DHT22;8934;51.194;17.150;2022-10-31T13:57:22;22.60;99.90
17632;DHT22;8934;51.194;17.150;2022-10-31T14:00:24;22.50;99.90
17632;DHT22;8934;51.194;17.150;2022-10-31T14:03:18;22.70;99.90
17632;DHT22;8934;51.194;17.150;2022-10-31T14:06:41;22.70;99.90
17632;DHT22;8934;51.194;17.150;2022-10-31T14:09:32;22.90;99.90
17632;DHT22;8934;51.194;17.150;2022-10-31T14:12:24;22.90;99.90
17632;DHT22;8934;51.194;17.150;2022-10-31T14:15:16;22.70;99.90
17632;DHT22;8934;51.194;17.150;2022-10-31T14:18:06;22.30;99.90
17632;DHT22;8934;51.194;17.150;2022-10-31T14:20:54;22.10;99.90
17632;DHT22;8934;51.194;17.150;2022-10-31T14:23:43;21.80;99.90
17632;DHT22;8934;51.194;17.150;2022-10-31T14:26:36;21.60;99.90
17632;DHT22;8934;51.194;17.150;2022-10-31T14:29:26;21.50;99.90
17632;DHT22;8934;51.194;17.150;2022-10-31T14:32:21;21.40;99.90
17632;DHT22;8934;51.194;17.150;2022-10-31T14:35:14;21.40;99.90
17632;DHT22;8934;51.194;17.150;2022-10-31T14:38:18;21.30;99.90
17632;DHT22;8934;51.194;17.150;2022-10-31T14:41:39;21.30;99.90
17632;DHT22;8934;51.194;17.150;2022-10-31T14:44:48;21.20;99.90
17632;DHT22;8934;51.194;17.150;2022-10-31T14:47:46;20.80;99.90
17632;DHT22;8934;51.194;17.150;2022-10-31T14:50:43;20.40;99.90
17632;DHT22;8934;51.194;17.150;2022-10-31T14:53:34;20.00;99.90
17632;DHT22;8934;51.194;17.150;2022-10-31T14:56:26;19.60;99.90
17632;DHT22;8934;51.194;17.150;2022-10-31T14:59:19;19.20;99.90
17632;DHT22;8934;51.194;17.150;2022-10-31T15:02:11;18.90;99.90
17632;DHT22;8934;51.194;17.150;2022-10-31T15:05:05;18.50;99.90
17632;DHT22;8934;51.194;17.150;2022-10-31T15:07:55;18.30;99.90
17632;DHT22;8934;51.194;17.150;2022-10-31T15:10:45;18.00;99.90
17632;DHT22;8934;51.194;17.150;2022-10-31T15:13:34;17.70;99.90
17632;DHT22;8934;51.194;17.150;2022-10-31T15:16:31;17.40;99.90
17632;DHT22;8934;51.194;17.150;2022-10-31T15:19:22;17.10;99.90
17632;DHT22;8934;51.194;17.150;2022-10-31T15:22:14;16.80;99.90
17632;DHT22;8934;51.194;17.150;2022-10-31T15:25:03;16.60;99.90
17632;DHT22;8934;51.194;17.150;2022-10-31T15:27:53;16.30;99.90
17632;DHT22;8934;51.194;17.150;2022-10-31T15:30:50;16.10;99.90
17632;DHT22;8934;51.194;17.150;2022-10-31T15:33:40;15.90;99.90
17632;DHT22;8934;51.194;17.150;2022-10-31T15:36:33;15.60;99.90
17632;DHT22;8934;51.194;17.150;2022-10-31T15:39:23;15.40;99.90
17632;DHT22;8934;51.194;17.150;2022-10-31T15:42:19;15.20;99.90
17632;DHT22;8934;51.194;17.150;2022-10-31T15:45:17;15.00;99.90
17632;DHT22;8934;51.194;17.150;2022-10-31T15:48:12;14.80;99.90
17632;DHT22;8934;51.194;17.150;2022-10-31T15:51:02;14.60;99.90
17632;DHT22;8934;51.194;17.150;2022-10-31T15:53:51;14.40;99.90
17632;DHT22;8934;51.194;17.150;2022-10-31T15:56:43;14.30;99.90
17632;DHT22;8934;51.194;17.150;2022-10-31T15:59:42;14.10;99.90
17632;DHT22;8934;51.194;17.150;2022-10-31T16:02:32;13.90;99.90
17632;DHT22;8934;51.194;17.150;2022-10-31T16:05:35;13.80;99.90
17632;DHT22;8934;51.194;17.150;2022-10-31T16:08:25;13.60;99.90
17632;DHT22;8934;51.194;17.150;2022-10-31T16:11:21;13.50;99.90
17632;DHT22;8934;51.194;17.150;2022-10-31T16:14:16;13.40;99.90
17632;DHT22;8934;51.194;17.150;2022-10-31T16:17:11;13.20;99.90
17632;DHT22;8934;51.194;17.150;2022-10-31T16:20:00;13.10;99.90
17632;DHT22;8934;51.194;17.150;2022-10-31T16:22:50;13.00;99.90
17632;DHT22;8934;51.194;17.150;2022-10-31T16:25:38;12.80;99.90
17632;DHT22;8934;51.194;17.150;2022-10-31T16:28:27;12.70;99.90
17632;DHT22;8934;51.194;17.150;2022-10-31T16:31:25;12.60;99.90
17632;DHT22;8934;51.194;17.150;2022-10-31T16:34:14;12.50;99.90
17632;DHT22;8934;51.194;17.150;2022-10-31T16:37:01;12.40;99.90
17632;DHT22;8934;51.194;17.150;2022-10-31T16:39:51;12.30;99.90
17632;DHT22;8934;51.194;17.150;2022-10-31T16:42:38;12.10;99.90
17632;DHT22;8934;51.194;17.150;2022-10-31T16:45:27;12.00;99.90
17632;DHT22;8934;51.194;17.150;2022-10-31T16:48:16;12.00;99.90
17632;DHT22;8934;51.194;17.150;2022-10-31T16:51:06;11.80;99.90
17632;DHT22;8934;51.194;17.150;2022-10-31T16:53:53;11.80;99.90
17632;DHT22;8934;51.194;17.150;2022-10-31T16:56:43;11.70;99.90
17632;DHT22;8934;51.194;17.150;2022-10-31T16:59:30;11.60;99.90
17632;DHT22;8934;51.194;17.150;2022-10-31T17:02:19;11.60;99.90
17632;DHT22;8934;51.194;17.150;2022-10-31T17:05:08;11.40;99.90
17632;DHT22;8934;51.194;17.150;2022-10-31T17:07:56;11.40;99.90
17632;DHT22;8934;51.194;17.150;2022-10-31T17:10:45;11.30;99.90
17632;DHT22;8934;51.194;17.150;2022-10-31T17:13:37;11.20;99.90
17632;DHT22;8934;51.194;17.150;2022-10-31T17:16:25;11.10;99.90
17632;DHT22;8934;51.194;17.150;2022-10-31T17:19:13;11.00;99.90
17632;DHT22;8934;51.194;17.150;2022-10-31T17:22:01;11.00;99.90
17632;DHT22;8934;51.194;17.150;2022-10-31T17:24:49;10.90;99.90
17632;DHT22;8934;51.194;17.150;2022-10-31T17:27:37;10.80;99.90
17632;DHT22;8934;51.194;17.150;2022-10-31T17:30:32;10.70;99.90
17632;DHT22;8934;51.194;17.150;2022-10-31T17:33:22;10.70;99.90
17632;DHT22;8934;51.194;17.150;2022-10-31T17:36:09;10.60;99.90
17632;DHT22;8934;51.194;17.150;2022-10-31T17:38:57;10.50;99.90
17632;DHT22;8934;51.194;17.150;2022-10-31T17:41:45;10.50;99.90
17632;DHT22;8934;51.194;17.150;2022-10-31T17:44:33;10.40;99.90
17632;DHT22;8934;51.194;17.150;2022-10-31T17:47:22;10.30;99.90
17632;DHT22;8934;51.194;17.150;2022-10-31T17:50:10;10.30;99.90
17632;DHT22;8934;51.194;17.150;2022-10-31T17:52:58;10.20;99.90
17632;DHT22;8934;51.194;17.150;2022-10-31T17:55:47;10.10;99.90
17632;DHT22;8934;51.194;17.150;2022-10-31T17:58:36;10.00;99.90
17632;DHT22;8934;51.194;17.150;2022-10-31T18:01:23;10.00;99.90
17632;DHT22;8934;51.194;17.150;2022-10-31T18:04:13;9.90;99.90
17632;DHT22;8934;51.194;17.150;2022-10-31T18:07:01;9.80;99.90
17632;DHT22;8934;51.194;17.150;2022-10-31T18:09:49;9.80;99.90
17632;DHT22;8934;51.194;17.150;2022-10-31T18:12:37;9.70;99.90
17632;DHT22;8934;51.194;17.150;2022-10-31T18:15:24;9.70;99.90
17632;DHT22;8934;51.194;17.150;2022-10-31T18:18:12;9.60;99.90
17632;DHT22;8934;51.194;17.150;2022-10-31T18:21:01;9.50;99.90
17632;DHT22;8934;51.194;17.150;2022-10-31T18:23:52;9.50;99.90
17632;DHT22;8934;51.194;17.150;2022-10-31T18:26:39;9.50;99.90
17632;DHT22;8934;51.194;17.150;2022-10-31T18:29:27;9.40;99.90
17632;DHT22;8934;51.194;17.150;2022-10-31T18:32:15;9.30;99.90